XNO56T EYVI-EKCH
Flight info
| Callsign | XNO56T |
|---|---|
| Flight time | 1h 15m |
| Altitude | 36000 |
| Route | ELEKA DCT IRZUK DCT ADAXA DCT NINTA DCT KOLJA DCT ELVIX L975 TIDVU |
| Aircraft | A319/M-SDE3FGHIRWY/LB1 |
Departure
| Time | 2026-04-21 19:11 |
|---|---|
| Airport | Vilnius International Airport (EYVI) |
Arrival
| Time | 2026-04-21 20:26 |
|---|---|
| Airport | Copenhagen Kastrup Airport (EKCH) |
| Time | Latitude | Longitude | Altitude | Speed | Heading |
|---|---|---|---|---|---|
| 2026-04-21 18:13 | 54.64236 | 25.28202 | 638 ft | 0 kts | 359° |
| 2026-04-21 19:01 | 54.64227 | 25.28202 | 638 ft | 4 kts | 1° |
| 2026-04-21 19:01 | 54.64200 | 25.28198 | 643 ft | 4 kts | 14° |
| 2026-04-21 19:01 | 54.64177 | 25.28181 | 639 ft | 4 kts | 49° |
| 2026-04-21 19:02 | 54.64170 | 25.28156 | 637 ft | 0 kts | 103° |
| 2026-04-21 19:04 | 54.64168 | 25.28169 | 638 ft | 2 kts | 101° |
| 2026-04-21 19:04 | 54.64170 | 25.28209 | 639 ft | 5 kts | 79° |
| 2026-04-21 19:04 | 54.64179 | 25.28277 | 639 ft | 7 kts | 77° |
| 2026-04-21 19:05 | 54.64143 | 25.28329 | 640 ft | 9 kts | 169° |
| 2026-04-21 19:05 | 54.64121 | 25.28437 | 641 ft | 12 kts | 88° |
| 2026-04-21 19:05 | 54.64124 | 25.28588 | 644 ft | 13 kts | 88° |
| 2026-04-21 19:05 | 54.64112 | 25.28694 | 646 ft | 8 kts | 137° |
| 2026-04-21 19:06 | 54.64042 | 25.28702 | 646 ft | 13 kts | 192° |
| 2026-04-21 19:06 | 54.63940 | 25.28626 | 638 ft | 19 kts | 199° |
| 2026-04-21 19:06 | 54.63813 | 25.28541 | 629 ft | 20 kts | 203° |
| 2026-04-21 19:06 | 54.63679 | 25.28447 | 621 ft | 23 kts | 202° |
| 2026-04-21 19:07 | 54.63511 | 25.28328 | 612 ft | 29 kts | 202° |
| 2026-04-21 19:07 | 54.63330 | 25.28202 | 624 ft | 24 kts | 202° |
| 2026-04-21 19:07 | 54.63167 | 25.28090 | 608 ft | 27 kts | 202° |
| 2026-04-21 19:07 | 54.62997 | 25.27973 | 606 ft | 25 kts | 202° |
| 2026-04-21 19:08 | 54.62845 | 25.27869 | 602 ft | 25 kts | 202° |
| 2026-04-21 19:08 | 54.62676 | 25.27749 | 601 ft | 27 kts | 202° |
| 2026-04-21 19:08 | 54.62559 | 25.27668 | 603 ft | 13 kts | 201° |
| 2026-04-21 19:08 | 54.62483 | 25.27712 | 611 ft | 13 kts | 138° |
| 2026-04-21 19:09 | 54.62419 | 25.27821 | 610 ft | 12 kts | 121° |
| 2026-04-21 19:09 | 54.62435 | 25.27899 | 608 ft | 8 kts | 19° |
| 2026-04-21 19:09 | 54.62448 | 25.27906 | 605 ft | 3 kts | 17° |
| 2026-04-21 19:09 | 54.62469 | 25.27921 | 604 ft | 0 kts | 22° |
| 2026-04-21 19:10 | 54.62527 | 25.27962 | 604 ft | 24 kts | 21° |
| 2026-04-21 19:11 | 54.62911 | 25.28230 | 602 ft | 94 kts | 21° |
| 2026-04-21 19:11 | 54.63720 | 25.28789 | 647 ft | 152 kts | 21° |
| 2026-04-21 19:11 | 54.64694 | 25.29472 | 1323 ft | 149 kts | 21° |
| 2026-04-21 19:11 | 54.65650 | 25.30134 | 2104 ft | 147 kts | 22° |
| 2026-04-21 19:12 | 54.66280 | 25.30568 | 2559 ft | 149 kts | 22° |
| 2026-04-21 19:12 | 54.67680 | 25.31537 | 3044 ft | 177 kts | 22° |
| 2026-04-21 19:12 | 54.68900 | 25.32384 | 3404 ft | 201 kts | 22° |
| 2026-04-21 19:12 | 54.70268 | 25.33337 | 4018 ft | 218 kts | 22° |
| 2026-04-21 19:13 | 54.71693 | 25.34329 | 4982 ft | 223 kts | 22° |
| 2026-04-21 19:13 | 54.73142 | 25.35337 | 5963 ft | 226 kts | 22° |
| 2026-04-21 19:13 | 54.74622 | 25.36367 | 6897 ft | 232 kts | 22° |
| 2026-04-21 19:13 | 54.76130 | 25.37415 | 7837 ft | 236 kts | 22° |
| 2026-04-21 19:14 | 54.77665 | 25.38476 | 8803 ft | 239 kts | 21° |
| 2026-04-21 19:14 | 54.79325 | 25.38840 | 9714 ft | 248 kts | 353° |
| 2026-04-21 19:14 | 54.80924 | 25.37568 | 10433 ft | 268 kts | 322° |
| 2026-04-21 19:14 | 54.82043 | 25.34799 | 10822 ft | 297 kts | 300° |
| 2026-04-21 19:15 | 54.82917 | 25.31394 | 11145 ft | 321 kts | 295° |
| 2026-04-21 19:15 | 54.83515 | 25.27588 | 11757 ft | 337 kts | 275° |
| 2026-04-21 19:15 | 54.83106 | 25.23533 | 12505 ft | 348 kts | 252° |
| 2026-04-21 19:15 | 54.82355 | 25.19519 | 13282 ft | 351 kts | 260° |
| 2026-04-21 19:16 | 54.82026 | 25.15320 | 14049 ft | 352 kts | 269° |
| 2026-04-21 19:16 | 54.81940 | 25.11071 | 14749 ft | 354 kts | 272° |
| 2026-04-21 19:16 | 54.81874 | 25.06766 | 15427 ft | 359 kts | 271° |
| 2026-04-21 19:16 | 54.81718 | 25.02417 | 16084 ft | 364 kts | 269° |
| 2026-04-21 19:17 | 54.81266 | 24.93541 | 17427 ft | 374 kts | 268° |
| 2026-04-21 19:17 | 54.81029 | 24.89089 | 18080 ft | 378 kts | 268° |
| 2026-04-21 19:17 | 54.80794 | 24.84521 | 18680 ft | 383 kts | 269° |
| 2026-04-21 19:18 | 54.80565 | 24.79902 | 19275 ft | 387 kts | 269° |
| 2026-04-21 19:18 | 54.80347 | 24.75226 | 19850 ft | 391 kts | 271° |
| 2026-04-21 19:18 | 54.80441 | 24.70530 | 20428 ft | 390 kts | 282° |
| 2026-04-21 19:18 | 54.81012 | 24.65960 | 21012 ft | 387 kts | 292° |
| 2026-04-21 19:19 | 54.82017 | 24.61648 | 21593 ft | 386 kts | 301° |
| 2026-04-21 19:19 | 54.83174 | 24.57421 | 22154 ft | 389 kts | 301° |
| 2026-04-21 19:19 | 54.84329 | 24.53156 | 22738 ft | 393 kts | 301° |
| 2026-04-21 19:19 | 54.85490 | 24.48836 | 23316 ft | 397 kts | 301° |
| 2026-04-21 19:20 | 54.86657 | 24.44478 | 23839 ft | 400 kts | 301° |
| 2026-04-21 19:20 | 54.87837 | 24.40073 | 24324 ft | 404 kts | 301° |
| 2026-04-21 19:20 | 54.89024 | 24.35638 | 24803 ft | 407 kts | 301° |
| 2026-04-21 19:20 | 54.90221 | 24.31164 | 25273 ft | 409 kts | 301° |
| 2026-04-21 19:21 | 54.91424 | 24.26659 | 25741 ft | 412 kts | 301° |
| 2026-04-21 19:21 | 54.92633 | 24.22125 | 26198 ft | 415 kts | 300° |
| 2026-04-21 19:21 | 54.93850 | 24.17553 | 26657 ft | 418 kts | 300° |
| 2026-04-21 19:21 | 54.95073 | 24.12942 | 27114 ft | 421 kts | 300° |
| 2026-04-21 19:22 | 54.96300 | 24.08303 | 27548 ft | 424 kts | 300° |
| 2026-04-21 19:22 | 54.97533 | 24.03624 | 28009 ft | 426 kts | 300° |
| 2026-04-21 19:22 | 54.98769 | 23.98920 | 28455 ft | 429 kts | 300° |
| 2026-04-21 19:22 | 55.00013 | 23.94179 | 28905 ft | 431 kts | 300° |
| 2026-04-21 19:23 | 55.01264 | 23.89413 | 29362 ft | 434 kts | 300° |
| 2026-04-21 19:23 | 55.02522 | 23.84616 | 29800 ft | 437 kts | 300° |
| 2026-04-21 19:23 | 55.03786 | 23.79784 | 30223 ft | 439 kts | 300° |
| 2026-04-21 19:23 | 55.05054 | 23.74924 | 30567 ft | 442 kts | 300° |
| 2026-04-21 19:24 | 55.06329 | 23.70024 | 30895 ft | 445 kts | 300° |
| 2026-04-21 19:24 | 55.07611 | 23.65088 | 31216 ft | 448 kts | 300° |
| 2026-04-21 19:24 | 55.08898 | 23.60125 | 31519 ft | 450 kts | 300° |
| 2026-04-21 19:24 | 55.10189 | 23.55130 | 31859 ft | 452 kts | 300° |
| 2026-04-21 19:25 | 55.11478 | 23.50123 | 32272 ft | 452 kts | 299° |
| 2026-04-21 19:25 | 55.12776 | 23.45076 | 32424 ft | 459 kts | 299° |
| 2026-04-21 19:25 | 55.14092 | 23.39958 | 32624 ft | 463 kts | 299° |
| 2026-04-21 19:25 | 55.15411 | 23.34810 | 32952 ft | 464 kts | 299° |
| 2026-04-21 19:26 | 55.16729 | 23.29649 | 33324 ft | 465 kts | 299° |
| 2026-04-21 19:26 | 55.18045 | 23.24485 | 33709 ft | 465 kts | 299° |
| 2026-04-21 19:26 | 55.19358 | 23.19321 | 34098 ft | 465 kts | 298° |
| 2026-04-21 19:26 | 55.20668 | 23.14147 | 34403 ft | 465 kts | 298° |
| 2026-04-21 19:27 | 55.21972 | 23.08977 | 34720 ft | 465 kts | 298° |
| 2026-04-21 19:27 | 55.23262 | 23.03863 | 35041 ft | 465 kts | 298° |
| 2026-04-21 19:27 | 55.24622 | 22.98652 | 35367 ft | 464 kts | 300° |
| 2026-04-21 19:27 | 55.26031 | 22.93561 | 35669 ft | 464 kts | 301° |
| 2026-04-21 19:28 | 55.27477 | 22.88511 | 35969 ft | 464 kts | 301° |
| 2026-04-21 19:28 | 55.28918 | 22.83531 | 36143 ft | 464 kts | 301° |
| 2026-04-21 19:28 | 55.31347 | 22.75044 | 36171 ft | 464 kts | 301° |
| 2026-04-21 19:29 | 55.34643 | 22.63194 | 36171 ft | 465 kts | 300° |
| 2026-04-21 19:29 | 55.37451 | 22.52958 | 36179 ft | 465 kts | 300° |
| 2026-04-21 19:30 | 55.39795 | 22.44406 | 36181 ft | 461 kts | 300° |
| 2026-04-21 19:30 | 55.42572 | 22.34255 | 36180 ft | 460 kts | 300° |
| 2026-04-21 19:31 | 55.45340 | 22.24109 | 36190 ft | 460 kts | 300° |
| 2026-04-21 19:31 | 55.48105 | 22.13945 | 36193 ft | 460 kts | 300° |
| 2026-04-21 19:32 | 55.50835 | 22.03826 | 36194 ft | 460 kts | 300° |
| 2026-04-21 19:32 | 55.53576 | 21.93626 | 36190 ft | 460 kts | 300° |
| 2026-04-21 19:33 | 55.56309 | 21.83420 | 36204 ft | 460 kts | 299° |
| 2026-04-21 19:33 | 55.59034 | 21.73203 | 36195 ft | 460 kts | 299° |
| 2026-04-21 19:34 | 55.61744 | 21.62986 | 36199 ft | 453 kts | 299° |
| 2026-04-21 19:34 | 55.64386 | 21.52943 | 36201 ft | 449 kts | 299° |
| 2026-04-21 19:35 | 55.68334 | 21.37930 | 36214 ft | 448 kts | 299° |
| 2026-04-21 19:36 | 55.70954 | 21.27911 | 36220 ft | 448 kts | 299° |
| 2026-04-21 19:36 | 55.73565 | 21.17879 | 36194 ft | 448 kts | 299° |
| 2026-04-21 19:37 | 55.76165 | 21.07837 | 36218 ft | 448 kts | 299° |
| 2026-04-21 19:37 | 55.78757 | 20.97782 | 36222 ft | 448 kts | 299° |
| 2026-04-21 19:38 | 55.81335 | 20.87711 | 36222 ft | 447 kts | 298° |
| 2026-04-21 19:38 | 55.83889 | 20.77694 | 36224 ft | 447 kts | 298° |
| 2026-04-21 19:39 | 55.86475 | 20.67539 | 36215 ft | 447 kts | 298° |
| 2026-04-21 19:39 | 55.89020 | 20.57516 | 36231 ft | 447 kts | 298° |
| 2026-04-21 19:40 | 55.91569 | 20.47418 | 36244 ft | 447 kts | 298° |
| 2026-04-21 19:40 | 55.94118 | 20.37233 | 36245 ft | 447 kts | 298° |
| 2026-04-21 19:41 | 55.96619 | 20.27170 | 36251 ft | 447 kts | 298° |
| 2026-04-21 19:41 | 55.99143 | 20.17035 | 36232 ft | 446 kts | 298° |
| 2026-04-21 19:42 | 56.01651 | 20.06898 | 36243 ft | 446 kts | 298° |
| 2026-04-21 19:42 | 56.04152 | 19.96760 | 36250 ft | 446 kts | 298° |
| 2026-04-21 19:43 | 56.06638 | 19.86603 | 36260 ft | 445 kts | 298° |
| 2026-04-21 19:43 | 56.09118 | 19.76443 | 36261 ft | 445 kts | 298° |
| 2026-04-21 19:44 | 56.11592 | 19.66271 | 36243 ft | 445 kts | 297° |
| 2026-04-21 19:44 | 56.14051 | 19.56094 | 36256 ft | 445 kts | 297° |
| 2026-04-21 19:45 | 56.16498 | 19.45915 | 36268 ft | 444 kts | 297° |
| 2026-04-21 19:45 | 56.18937 | 19.35724 | 36251 ft | 445 kts | 297° |
| 2026-04-21 19:46 | 56.21385 | 19.25476 | 36237 ft | 449 kts | 297° |
| 2026-04-21 19:46 | 56.23842 | 19.15118 | 36248 ft | 453 kts | 297° |
| 2026-04-21 19:47 | 56.26299 | 19.04668 | 36262 ft | 454 kts | 297° |
| 2026-04-21 19:47 | 56.28538 | 18.94034 | 36263 ft | 459 kts | 287° |
| 2026-04-21 19:47 | 56.29009 | 18.88332 | 36283 ft | 462 kts | 276° |
| 2026-04-21 19:48 | 56.28920 | 18.82538 | 36285 ft | 466 kts | 265° |
| 2026-04-21 19:48 | 56.27703 | 18.71073 | 36287 ft | 466 kts | 261° |
| 2026-04-21 19:49 | 56.26423 | 18.59639 | 36266 ft | 466 kts | 261° |
| 2026-04-21 19:49 | 56.25136 | 18.48218 | 36270 ft | 466 kts | 261° |
| 2026-04-21 19:50 | 56.24053 | 18.38738 | 36273 ft | 466 kts | 261° |
| 2026-04-21 19:50 | 56.22482 | 18.25421 | 36280 ft | 466 kts | 259° |
| 2026-04-21 19:51 | 56.20855 | 18.14119 | 36276 ft | 467 kts | 257° |
| 2026-04-21 19:51 | 56.19072 | 18.02891 | 36283 ft | 467 kts | 257° |
| 2026-04-21 19:52 | 56.17312 | 17.91657 | 36271 ft | 467 kts | 257° |
| 2026-04-21 19:52 | 56.15601 | 17.80416 | 36281 ft | 467 kts | 258° |
| 2026-04-21 19:53 | 56.13893 | 17.69160 | 36284 ft | 467 kts | 257° |
| 2026-04-21 19:53 | 56.12166 | 17.57936 | 36295 ft | 468 kts | 257° |
| 2026-04-21 19:54 | 56.10414 | 17.46702 | 36288 ft | 468 kts | 257° |
| 2026-04-21 19:54 | 56.08642 | 17.35467 | 36285 ft | 469 kts | 257° |
| 2026-04-21 19:55 | 56.06863 | 17.24233 | 36268 ft | 469 kts | 257° |
| 2026-04-21 19:55 | 56.05083 | 17.12999 | 36283 ft | 469 kts | 257° |
| 2026-04-21 19:56 | 56.03287 | 17.01770 | 36295 ft | 470 kts | 257° |
| 2026-04-21 19:56 | 56.01471 | 16.90544 | 36296 ft | 470 kts | 257° |
| 2026-04-21 19:57 | 55.99637 | 16.79413 | 36302 ft | 471 kts | 255° |
| 2026-04-21 19:57 | 55.97490 | 16.68349 | 36305 ft | 472 kts | 252° |
| 2026-04-21 19:58 | 55.95161 | 16.57391 | 36293 ft | 472 kts | 251° |
| 2026-04-21 19:58 | 55.94002 | 16.51943 | 36040 ft | 467 kts | 252° |
| 2026-04-21 19:58 | 55.92865 | 16.46535 | 35709 ft | 463 kts | 252° |
| 2026-04-21 19:58 | 55.91749 | 16.41170 | 35349 ft | 460 kts | 252° |
| 2026-04-21 19:59 | 55.90645 | 16.35832 | 34980 ft | 457 kts | 253° |
| 2026-04-21 19:59 | 55.89556 | 16.30538 | 34612 ft | 454 kts | 253° |
| 2026-04-21 19:59 | 55.88474 | 16.25271 | 34223 ft | 451 kts | 253° |
| 2026-04-21 19:59 | 55.87393 | 16.20046 | 33775 ft | 448 kts | 253° |
| 2026-04-21 20:00 | 55.86313 | 16.14861 | 33325 ft | 446 kts | 253° |
| 2026-04-21 20:00 | 55.85234 | 16.09705 | 32868 ft | 443 kts | 253° |
| 2026-04-21 20:00 | 55.84159 | 16.04581 | 32439 ft | 441 kts | 253° |
| 2026-04-21 20:00 | 55.83090 | 15.99485 | 32010 ft | 438 kts | 253° |
| 2026-04-21 20:01 | 55.82027 | 15.94428 | 31557 ft | 436 kts | 253° |
| 2026-04-21 20:01 | 55.80965 | 15.89397 | 31162 ft | 434 kts | 253° |
| 2026-04-21 20:01 | 55.79906 | 15.84387 | 30724 ft | 433 kts | 253° |
| 2026-04-21 20:01 | 55.78847 | 15.79390 | 30299 ft | 431 kts | 253° |
| 2026-04-21 20:02 | 55.78146 | 15.76095 | 29994 ft | 430 kts | 253° |
| 2026-04-21 20:02 | 55.76735 | 15.69465 | 29430 ft | 427 kts | 253° |
| 2026-04-21 20:02 | 55.75685 | 15.64551 | 29024 ft | 425 kts | 253° |
| 2026-04-21 20:02 | 55.74638 | 15.59669 | 28642 ft | 422 kts | 253° |
| 2026-04-21 20:03 | 55.73593 | 15.54815 | 28268 ft | 420 kts | 253° |
| 2026-04-21 20:03 | 55.72553 | 15.49986 | 27892 ft | 417 kts | 253° |
| 2026-04-21 20:03 | 55.71520 | 15.45189 | 27513 ft | 415 kts | 253° |
| 2026-04-21 20:03 | 55.70490 | 15.40429 | 27131 ft | 413 kts | 253° |
| 2026-04-21 20:04 | 55.69465 | 15.35696 | 26746 ft | 410 kts | 252° |
| 2026-04-21 20:04 | 55.68440 | 15.30991 | 26361 ft | 408 kts | 252° |
| 2026-04-21 20:04 | 55.67417 | 15.26307 | 25954 ft | 406 kts | 252° |
| 2026-04-21 20:04 | 55.66402 | 15.21669 | 25584 ft | 403 kts | 252° |
| 2026-04-21 20:05 | 55.65390 | 15.17049 | 25195 ft | 401 kts | 252° |
| 2026-04-21 20:05 | 55.64383 | 15.12456 | 24817 ft | 399 kts | 252° |
| 2026-04-21 20:05 | 55.63379 | 15.07888 | 24436 ft | 397 kts | 252° |
| 2026-04-21 20:05 | 55.62381 | 15.03351 | 24053 ft | 395 kts | 252° |
| 2026-04-21 20:06 | 55.61383 | 14.98833 | 23645 ft | 393 kts | 251° |
| 2026-04-21 20:06 | 55.60390 | 14.94349 | 23228 ft | 390 kts | 251° |
| 2026-04-21 20:06 | 55.59403 | 14.89897 | 22828 ft | 387 kts | 251° |
| 2026-04-21 20:06 | 55.58422 | 14.85481 | 22438 ft | 384 kts | 251° |
| 2026-04-21 20:07 | 55.57446 | 14.81104 | 22042 ft | 381 kts | 251° |
| 2026-04-21 20:07 | 55.56476 | 14.76769 | 21675 ft | 378 kts | 251° |
| 2026-04-21 20:07 | 55.55838 | 14.73919 | 21423 ft | 376 kts | 251° |
| 2026-04-21 20:07 | 55.54556 | 14.68203 | 20927 ft | 372 kts | 251° |
| 2026-04-21 20:08 | 55.53607 | 14.63970 | 20562 ft | 369 kts | 251° |
| 2026-04-21 20:08 | 55.52666 | 14.59772 | 20183 ft | 367 kts | 251° |
| 2026-04-21 20:08 | 55.51727 | 14.55606 | 19826 ft | 364 kts | 250° |
| 2026-04-21 20:08 | 55.50806 | 14.51529 | 19479 ft | 361 kts | 250° |
| 2026-04-21 20:09 | 55.49877 | 14.47431 | 19133 ft | 359 kts | 250° |
| 2026-04-21 20:09 | 55.48951 | 14.43347 | 18714 ft | 359 kts | 250° |
| 2026-04-21 20:09 | 55.48022 | 14.39250 | 18174 ft | 361 kts | 250° |
| 2026-04-21 20:09 | 55.47090 | 14.35143 | 17644 ft | 362 kts | 250° |
| 2026-04-21 20:10 | 55.46154 | 14.31025 | 17109 ft | 362 kts | 250° |
| 2026-04-21 20:10 | 55.45214 | 14.26909 | 16581 ft | 362 kts | 249° |
| 2026-04-21 20:10 | 55.44350 | 14.22753 | 16057 ft | 360 kts | 258° |
| 2026-04-21 20:10 | 55.44109 | 14.18404 | 15541 ft | 355 kts | 273° |
| 2026-04-21 20:11 | 55.44119 | 14.14059 | 15050 ft | 355 kts | 273° |
| 2026-04-21 20:11 | 55.44134 | 14.09722 | 14561 ft | 354 kts | 273° |
| 2026-04-21 20:11 | 55.44148 | 14.05397 | 14067 ft | 352 kts | 273° |
| 2026-04-21 20:11 | 55.44159 | 14.01092 | 13524 ft | 351 kts | 272° |
| 2026-04-21 20:12 | 55.44165 | 13.96799 | 12983 ft | 350 kts | 272° |
| 2026-04-21 20:12 | 55.44170 | 13.92579 | 12777 ft | 339 kts | 272° |
| 2026-04-21 20:12 | 55.44171 | 13.89846 | 12511 ft | 336 kts | 272° |
| 2026-04-21 20:12 | 55.44174 | 13.84370 | 11963 ft | 332 kts | 272° |
| 2026-04-21 20:13 | 55.44176 | 13.80314 | 11557 ft | 330 kts | 272° |
| 2026-04-21 20:13 | 55.44178 | 13.76288 | 11156 ft | 327 kts | 272° |
| 2026-04-21 20:13 | 55.44181 | 13.72297 | 10760 ft | 325 kts | 272° |
| 2026-04-21 20:13 | 55.44219 | 13.68339 | 10367 ft | 321 kts | 278° |
| 2026-04-21 20:14 | 55.44793 | 13.64609 | 9953 ft | 314 kts | 296° |
| 2026-04-21 20:14 | 55.45635 | 13.61075 | 9513 ft | 310 kts | 296° |
| 2026-04-21 20:14 | 55.46182 | 13.58783 | 9238 ft | 303 kts | 296° |
| 2026-04-21 20:14 | 55.46986 | 13.55417 | 8837 ft | 294 kts | 296° |
| 2026-04-21 20:15 | 55.47769 | 13.52138 | 8417 ft | 287 kts | 296° |
| 2026-04-21 20:15 | 55.48541 | 13.48909 | 8005 ft | 285 kts | 295° |
| 2026-04-21 20:15 | 55.49432 | 13.45831 | 7595 ft | 279 kts | 310° |
| 2026-04-21 20:15 | 55.50722 | 13.43311 | 7205 ft | 277 kts | 316° |
| 2026-04-21 20:16 | 55.52051 | 13.40839 | 6815 ft | 278 kts | 316° |
| 2026-04-21 20:16 | 55.53379 | 13.38366 | 6538 ft | 274 kts | 316° |
| 2026-04-21 20:16 | 55.54673 | 13.35951 | 6338 ft | 268 kts | 316° |
| 2026-04-21 20:16 | 55.55945 | 13.33572 | 6069 ft | 265 kts | 316° |
| 2026-04-21 20:17 | 55.57208 | 13.31217 | 5798 ft | 262 kts | 316° |
| 2026-04-21 20:17 | 55.58433 | 13.28940 | 5635 ft | 249 kts | 316° |
| 2026-04-21 20:17 | 55.59601 | 13.26739 | 5304 ft | 242 kts | 317° |
| 2026-04-21 20:17 | 55.60738 | 13.24561 | 4945 ft | 240 kts | 316° |
| 2026-04-21 20:18 | 55.61861 | 13.22406 | 4694 ft | 237 kts | 316° |
| 2026-04-21 20:18 | 55.62979 | 13.20277 | 4415 ft | 235 kts | 316° |
| 2026-04-21 20:18 | 55.64094 | 13.18173 | 4145 ft | 233 kts | 316° |
| 2026-04-21 20:18 | 55.65208 | 13.16093 | 3860 ft | 232 kts | 316° |
| 2026-04-21 20:19 | 55.66312 | 13.14052 | 3679 ft | 226 kts | 316° |
| 2026-04-21 20:19 | 55.67382 | 13.12081 | 3450 ft | 219 kts | 316° |
| 2026-04-21 20:19 | 55.68436 | 13.10150 | 3121 ft | 217 kts | 316° |
| 2026-04-21 20:19 | 55.69482 | 13.08246 | 2996 ft | 215 kts | 316° |
| 2026-04-21 20:20 | 55.70527 | 13.06352 | 3001 ft | 215 kts | 316° |
| 2026-04-21 20:20 | 55.71558 | 13.04485 | 2993 ft | 206 kts | 316° |
| 2026-04-21 20:20 | 55.72537 | 13.02707 | 2997 ft | 199 kts | 316° |
| 2026-04-21 20:20 | 55.73497 | 13.00961 | 3005 ft | 196 kts | 316° |
| 2026-04-21 20:21 | 55.74446 | 12.99226 | 2996 ft | 196 kts | 316° |
| 2026-04-21 20:21 | 55.75365 | 12.97439 | 2995 ft | 197 kts | 307° |
| 2026-04-21 20:21 | 55.75739 | 12.95093 | 3004 ft | 205 kts | 270° |
| 2026-04-21 20:21 | 55.75435 | 12.92589 | 3008 ft | 209 kts | 257° |
| 2026-04-21 20:22 | 55.74994 | 12.90127 | 3005 ft | 209 kts | 256° |
| 2026-04-21 20:22 | 55.74059 | 12.85283 | 3000 ft | 200 kts | 249° |
| 2026-04-21 20:22 | 55.73212 | 12.83356 | 2841 ft | 199 kts | 225° |
| 2026-04-21 20:23 | 55.72176 | 12.81749 | 2600 ft | 196 kts | 225° |
| 2026-04-21 20:23 | 55.71169 | 12.80182 | 2350 ft | 194 kts | 225° |
| 2026-04-21 20:23 | 55.70143 | 12.78582 | 2084 ft | 193 kts | 225° |
| 2026-04-21 20:23 | 55.69135 | 12.77013 | 1816 ft | 192 kts | 225° |
| 2026-04-21 20:24 | 55.68145 | 12.75472 | 1547 ft | 185 kts | 225° |
| 2026-04-21 20:24 | 55.67219 | 12.74035 | 1315 ft | 169 kts | 225° |
| 2026-04-21 20:24 | 55.66366 | 12.72709 | 1094 ft | 157 kts | 226° |
| 2026-04-21 20:24 | 55.65589 | 12.71503 | 875 ft | 141 kts | 226° |
| 2026-04-21 20:25 | 55.64884 | 12.70406 | 688 ft | 134 kts | 224° |
| 2026-04-21 20:25 | 55.64187 | 12.69321 | 496 ft | 130 kts | 224° |
| 2026-04-21 20:25 | 55.63515 | 12.68277 | 324 ft | 128 kts | 223° |
| 2026-04-21 20:25 | 55.62855 | 12.67251 | 152 ft | 126 kts | 223° |
| 2026-04-21 20:26 | 55.62206 | 12.66245 | 18 ft | 116 kts | 221° |
| 2026-04-21 20:26 | 55.61700 | 12.65458 | 17 ft | 55 kts | 221° |
| 2026-04-21 20:26 | 55.61602 | 12.65223 | 16 ft | 14 kts | 264° |
| 2026-04-21 20:26 | 55.61612 | 12.65039 | 18 ft | 15 kts | 293° |
| 2026-04-21 20:27 | 55.61620 | 12.65014 | 18 ft | 0 kts | 299° |
| 2026-04-21 20:27 | 55.61621 | 12.65010 | 18 ft | 2 kts | 299° |
| 2026-04-21 20:27 | 55.61648 | 12.64946 | 17 ft | 9 kts | 314° |
| 2026-04-21 20:27 | 55.61700 | 12.64844 | 17 ft | 13 kts | 313° |
| 2026-04-21 20:28 | 55.61768 | 12.64772 | 17 ft | 9 kts | 35° |
| 2026-04-21 20:28 | 55.61835 | 12.64794 | 19 ft | 11 kts | 7° |
| 2026-04-21 20:28 | 55.61916 | 12.64823 | 19 ft | 12 kts | 46° |
| 2026-04-21 20:28 | 55.61981 | 12.64919 | 17 ft | 12 kts | 32° |
| 2026-04-21 20:29 | 55.62051 | 12.64997 | 19 ft | 12 kts | 31° |
| 2026-04-21 20:29 | 55.62121 | 12.65076 | 19 ft | 11 kts | 34° |
| 2026-04-21 20:29 | 55.62181 | 12.65153 | 18 ft | 10 kts | 35° |
| 2026-04-21 20:29 | 55.62230 | 12.65198 | 17 ft | 6 kts | 13° |
| 2026-04-21 20:30 | 55.62283 | 12.65204 | 17 ft | 9 kts | 1° |
| 2026-04-21 20:30 | 55.62360 | 12.65202 | 17 ft | 13 kts | 357° |
| 2026-04-21 20:30 | 55.62460 | 12.65200 | 17 ft | 16 kts | 359° |
| 2026-04-21 20:30 | 55.62557 | 12.65194 | 17 ft | 14 kts | 358° |
| 2026-04-21 20:31 | 55.62636 | 12.65214 | 17 ft | 11 kts | 38° |
| 2026-04-21 20:31 | 55.62651 | 12.65301 | 17 ft | 6 kts | 85° |
| 2026-04-21 20:31 | 55.62658 | 12.65356 | 17 ft | 5 kts | 54° |
| 2026-04-21 20:31 | 55.62678 | 12.65375 | 17 ft | 3 kts | 26° |
| 2026-04-21 20:32 | 55.62697 | 12.65392 | 17 ft | 2 kts | 26° |
| 2026-04-21 20:32 | 55.62701 | 12.65396 | 17 ft | 0 kts | 26° |